Time;durP1;ratioP1;P1;durP2;ratioP2;P2;SDS_P1;SDS_P2;PMS_P1;PMS_P2;Temp;Humidity;BMP_temperature;BMP_pressure;BME280_temperature;BME280_humidity;BME280_pressure;Samples;Min_cycle;Max_cycle;Signal;HPM_P1;HPM_P2
2023/06/08 00:00:50;;;;;;;14.43;7.60;;;;;;;14.96;78.58;101812.97;4881158;29;20044;-80
2023/06/08 00:03:17;;;;;;;15.70;8.48;;;;;;;14.83;79.21;101792.13;4879418;29;20037;-80
2023/06/08 00:05:47;;;;;;;14.95;7.43;;;;;;;15.09;78.88;101830.28;4880363;29;20024;-80
2023/06/08 00:08:12;;;;;;;13.40;7.45;;;;;;;15.02;79.21;101826.41;4864450;29;20056;-80
2023/06/08 00:10:42;;;;;;;17.38;8.73;;;;;;;15.10;79.17;101833.69;4881072;29;20060;-80
2023/06/08 00:13:07;;;;;;;15.93;7.93;;;;;;;15.00;79.32;101819.63;4880909;29;20481;-80
2023/06/08 00:15:33;;;;;;;13.65;7.63;;;;;;;15.06;79.39;101832.25;4880996;29;20080;-80
2023/06/08 00:18:00;;;;;;;16.02;7.95;;;;;;;15.03;79.64;101837.63;4880866;29;20382;-80
2023/06/08 00:20:25;;;;;;;17.27;8.80;;;;;;;14.79;79.88;101795.88;4878702;29;20041;-80
2023/06/08 00:22:51;;;;;;;14.27;8.73;;;;;;;14.66;80.38;101775.03;4881078;29;20033;-80
2023/06/08 00:25:20;;;;;;;16.75;7.47;;;;;;;14.99;80.30;101834.41;4880778;29;20047;-80
2023/06/08 00:27:46;;;;;;;14.20;8.13;;;;;;;14.87;80.23;101815.25;4880630;29;20025;-80
2023/06/08 00:30:13;;;;;;;15.43;8.45;;;;;;;14.79;80.25;101801.06;4880569;29;20037;-80
2023/06/08 00:32:39;;;;;;;17.67;8.43;;;;;;;14.82;80.64;101804.28;4880438;29;20033;-80
2023/06/08 00:35:05;;;;;;;20.23;8.73;;;;;;;15.00;80.73;101833.47;4880143;29;20076;-80
2023/06/08 00:37:30;;;;;;;14.63;8.35;;;;;;;14.86;80.33;101821.38;4880346;29;20041;-80
2023/06/08 00:39:56;;;;;;;17.17;8.60;;;;;;;14.67;80.77;101786.28;4880203;29;20044;-80
2023/06/08 00:42:21;;;;;;;14.20;8.00;;;;;;;14.76;80.92;101811.69;4880567;29;20093;-80
2023/06/08 00:44:46;;;;;;;13.75;8.32;;;;;;;14.58;81.53;101785.94;4880302;29;20124;-79
2023/06/08 00:47:12;;;;;;;21.48;8.40;;;;;;;14.57;82.16;101801.63;4880442;29;20036;-80
2023/06/08 00:49:38;;;;;;;17.77;9.00;;;;;;;14.61;81.89;101796.13;4879940;29;20503;-80
2023/06/08 00:52:05;;;;;;;16.55;9.13;;;;;;;14.70;82.41;101809.47;4880357;29;20033;-80
2023/06/08 00:54:30;;;;;;;14.02;8.57;;;;;;;14.67;82.48;101817.47;4879807;29;20029;-80
2023/06/08 00:57:00;;;;;;;16.88;8.63;;;;;;;14.63;82.93;101820.25;4880420;29;20028;-80
2023/06/08 00:59:28;;;;;;;16.42;8.65;;;;;;;14.54;83.23;101802.63;4880199;29;20426;-80
2023/06/08 01:01:56;;;;;;;15.70;8.73;;;;;;;14.54;83.05;101812.19;4879778;29;20025;-79
2023/06/08 01:04:23;;;;;;;18.90;9.38;;;;;;;14.43;83.53;101812.03;4879972;29;20033;-80
2023/06/08 01:06:53;;;;;;;16.45;9.30;;;;;;;14.24;83.74;101795.00;4880107;29;20033;-79
2023/06/08 01:09:33;;;;;;;15.52;8.55;;;;;;;14.14;83.99;101796.50;4879855;29;20025;-79
2023/06/08 01:12:17;;;;;;;19.90;9.75;;;;;;;14.25;84.01;101803.63;4879891;29;20025;-80
2023/06/08 01:14:59;;;;;;;19.25;9.27;;;;;;;13.98;84.79;101782.81;4879738;29;20045;-80
2023/06/08 01:17:27;;;;;;;;;;;;;;;14.22;82.30;101804.66;4880289;29;20033;-80
2023/06/08 01:20:14;;;;;;;19.38;9.93;;;;;;;14.12;85.07;101802.72;4879656;29;19943;-80
2023/06/08 01:23:03;;;;;;;14.65;8.90;;;;;;;14.07;84.64;101806.47;4879624;29;20040;-80
2023/06/08 01:25:31;;;;;;;16.83;9.55;;;;;;;13.67;85.76;101745.78;4878230;29;20041;-80
2023/06/08 01:28:13;;;;;;;19.23;9.45;;;;;;;13.99;86.32;101800.06;4879644;29;20462;-80
2023/06/08 01:30:46;;;;;;;17.00;9.50;;;;;;;13.76;86.24;101775.50;4879627;29;20056;-80
2023/06/08 01:33:19;;;;;;;18.00;10.40;;;;;;;13.86;86.54;101812.13;4879565;29;20029;-80
2023/06/08 01:35:53;;;;;;;19.27;9.85;;;;;;;13.79;86.99;101811.66;4879463;29;20032;-80
2023/06/08 01:38:35;;;;;;;15.77;10.02;;;;;;;13.59;87.41;101791.28;4879383;29;20033;-80
2023/06/08 01:41:04;;;;;;;;;;;;;;;13.75;84.77;101817.97;4879962;29;20092;-79
2023/06/08 01:43:31;;;;;;;21.08;10.20;;;;;;;13.55;87.56;101788.00;4879016;29;19915;-80
2023/06/08 01:46:00;;;;;;;20.17;10.60;;;;;;;13.60;87.78;101793.78;4879253;29;20029;-79
2023/06/08 01:48:28;;;;;;;15.93;9.07;;;;;;;13.58;88.11;101805.19;4879196;29;20017;-80
2023/06/08 01:50:55;;;;;;;18.13;9.60;;;;;;;13.17;88.44;101748.75;4879048;29;20267;-80
2023/06/08 01:53:20;;;;;;;18.30;10.40;;;;;;;13.36;88.99;101792.63;4878961;29;20051;-80
2023/06/08 01:55:49;;;;;;;18.23;9.70;;;;;;;13.32;89.42;101789.41;4878971;29;20056;-80
2023/06/08 01:58:18;;;;;;;18.17;10.15;;;;;;;13.28;89.38;101774.94;4879158;29;20366;-80
2023/06/08 02:00:43;;;;;;;18.48;9.77;;;;;;;12.88;89.78;101716.75;4894386;29;20040;-80
2023/06/08 02:03:08;;;;;;;20.10;10.18;;;;;;;13.02;90.18;101749.66;4897732;29;20099;-80
2023/06/08 02:05:34;;;;;;;17.52;9.73;;;;;;;13.07;90.58;101765.78;4897522;29;20369;-79
2023/06/08 02:07:59;;;;;;;16.63;9.82;;;;;;;13.15;90.77;101779.13;4897725;29;20503;-80
2023/06/08 02:10:25;;;;;;;15.50;9.70;;;;;;;13.16;90.64;101781.63;4898085;29;20025;-82
2023/06/08 02:12:50;;;;;;;19.02;10.23;;;;;;;12.95;91.15;101756.13;4897437;29;20024;-81
2023/06/08 02:15:15;;;;;;;17.73;9.70;;;;;;;13.10;91.13;101791.56;4897766;29;20029;-80
2023/06/08 02:17:41;;;;;;;16.88;9.93;;;;;;;13.03;91.41;101791.06;4897776;29;20017;-79
2023/06/08 02:20:07;;;;;;;21.88;11.25;;;;;;;12.98;91.70;101792.25;4897280;29;20354;-80
2023/06/08 02:22:33;;;;;;;19.40;11.00;;;;;;;12.59;92.14;101742.63;4897335;29;20059;-80
2023/06/08 02:25:00;;;;;;;18.15;10.02;;;;;;;12.63;92.80;101751.03;4897461;29;20084;-80
2023/06/08 02:27:25;;;;;;;19.65;10.93;;;;;;;12.63;92.92;101759.66;4897172;29;20434;-80
2023/06/08 02:29:51;;;;;;;19.30;10.77;;;;;;;12.59;92.76;101755.56;4897537;29;20039;-81
2023/06/08 02:32:16;;;;;;;19.38;10.60;;;;;;;12.69;93.33;101779.22;4897445;29;20041;-80
2023/06/08 02:34:55;;;;;;;17.25;10.63;;;;;;;12.57;93.22;101757.41;4897350;29;20025;-81
2023/06/08 02:37:25;;;;;;;15.13;10.57;;;;;;;12.66;93.58;101789.72;4897505;29;20033;-81
2023/06/08 02:39:50;;;;;;;21.95;10.75;;;;;;;12.67;93.90;101785.38;4897133;29;20025;-81
2023/06/08 02:42:16;;;;;;;19.15;11.40;;;;;;;12.60;94.43;101795.28;4880824;29;20039;-80
2023/06/08 02:44:41;;;;;;;18.27;10.43;;;;;;;12.61;94.54;101791.75;4897406;29;20120;-81
2023/06/08 02:47:07;;;;;;;20.13;11.07;;;;;;;12.58;94.11;101777.19;4897371;29;20032;-81
2023/06/08 02:49:32;;;;;;;19.83;10.93;;;;;;;12.51;94.72;101777.66;4897174;29;20487;-81
2023/06/08 02:51:57;;;;;;;20.25;11.25;;;;;;;12.50;94.80;101786.34;4897070;29;20033;-80
2023/06/08 02:54:22;;;;;;;16.42;10.25;;;;;;;12.27;94.93;101752.16;4897424;29;20031;-81
2023/06/08 02:56:48;;;;;;;17.05;10.70;;;;;;;12.34;94.85;101765.63;4897107;29;20489;-81
2023/06/08 02:59:14;;;;;;;21.05;11.10;;;;;;;12.42;95.39;101798.88;4897153;29;20039;-81
2023/06/08 03:01:51;;;;;;;19.08;10.93;;;;;;;12.40;95.67;101796.38;4897231;29;20032;-80
2023/06/08 03:04:20;;;;;;;20.88;11.05;;;;;;;12.41;95.88;101795.47;4897115;29;20037;-81
2023/06/08 03:06:46;;;;;;;22.83;11.65;;;;;;;12.19;96.07;101769.03;4897014;29;20040;-81
2023/06/08 03:09:12;;;;;;;18.15;11.20;;;;;;;12.40;95.91;101795.56;4897002;29;20029;-81
2023/06/08 03:11:38;;;;;;;21.08;11.32;;;;;;;12.37;96.03;101786.16;4897132;29;20392;-81
2023/06/08 03:14:04;;;;;;;22.02;11.88;;;;;;;12.17;95.92;101756.19;4897262;29;20032;-80
2023/06/08 03:16:31;;;;;;;18.52;10.98;;;;;;;12.16;96.46;101759.69;4897149;29;20024;-80
2023/06/08 03:18:57;;;;;;;22.00;11.10;;;;;;;12.07;96.18;101727.38;4899129;29;20040;-81
2023/06/08 03:21:28;;;;;;;17.15;11.65;;;;;;;12.37;96.20;101781.00;4900228;29;20088;-81
2023/06/08 03:23:54;;;;;;;18.80;11.90;;;;;;;12.33;96.44;101774.31;4899264;29;20068;-81
2023/06/08 03:26:19;;;;;;;18.60;11.85;;;;;;;12.30;96.50;101775.34;4900556;29;20084;-81
2023/06/08 03:28:45;;;;;;;21.70;11.45;;;;;;;12.25;96.98;101781.66;4900572;29;20037;-81
2023/06/08 03:31:11;;;;;;;22.33;11.60;;;;;;;12.04;97.04;101755.19;4900397;29;20036;-81
2023/06/08 03:33:36;;;;;;;20.80;11.90;;;;;;;11.99;97.81;101758.03;4900276;29;20033;-81
2023/06/08 03:36:02;;;;;;;20.48;11.93;;;;;;;12.17;97.40;101778.66;4900293;29;20037;-81
2023/06/08 03:38:27;;;;;;;23.00;11.38;;;;;;;11.71;97.70;101730.19;4900691;29;20043;-81
2023/06/08 03:40:52;;;;;;;18.30;12.43;;;;;;;12.18;97.76;101793.28;4899276;29;20044;-81
2023/06/08 03:43:18;;;;;;;20.15;11.82;;;;;;;12.15;97.49;101791.69;4898911;29;20488;-81
2023/06/08 03:45:43;;;;;;;17.85;11.70;;;;;;;11.95;98.16;101759.13;4900351;29;20420;-81
2023/06/08 03:48:08;;;;;;;19.45;11.43;;;;;;;12.01;98.21;101784.69;4900011;29;20032;-81
2023/06/08 03:50:34;;;;;;;20.02;12.35;;;;;;;12.10;98.34;101791.13;4900011;29;20088;-81
2023/06/08 03:52:59;;;;;;;17.35;11.43;;;;;;;12.13;98.12;101790.94;4899543;29;20024;-81
2023/06/08 03:55:26;;;;;;;21.02;12.18;;;;;;;12.14;98.34;101790.03;4899850;29;20489;-81
2023/06/08 03:57:52;;;;;;;22.83;11.80;;;;;;;12.13;98.23;101793.53;4900044;29;20036;-81
2023/06/08 04:00:19;;;;;;;17.92;11.23;;;;;;;12.13;97.99;101787.53;4899965;29;20123;-80
2023/06/08 04:02:46;;;;;;;21.77;12.15;;;;;;;12.08;98.15;101785.16;4899932;29;20024;-81
2023/06/08 04:05:13;;;;;;;20.95;11.90;;;;;;;11.76;98.67;101750.63;4899589;29;20065;-81
2023/06/08 04:07:40;;;;;;;20.60;12.18;;;;;;;11.76;98.60;101742.88;4899736;29;20024;-81
2023/06/08 04:10:06;;;;;;;22.60;12.63;;;;;;;11.78;98.93;101749.63;4899799;29;20033;-80
2023/06/08 04:12:32;;;;;;;18.27;10.82;;;;;;;11.80;99.01;101743.56;4899814;29;20106;-81
2023/06/08 04:14:57;;;;;;;24.27;13.07;;;;;;;11.93;99.05;101740.25;4898693;29;20032;-80
2023/06/08 04:17:27;;;;;;;20.92;11.50;;;;;;;12.03;98.19;101761.28;4898597;29;20473;-81
2023/06/08 04:19:53;;;;;;;21.13;12.10;;;;;;;12.25;97.75;101779.91;4899432;29;20059;-80
2023/06/08 04:22:18;;;;;;;20.73;12.32;;;;;;;12.22;98.10;101787.03;4899364;29;20028;-80
2023/06/08 04:24:43;;;;;;;19.58;12.18;;;;;;;12.16;98.20;101783.00;4899533;29;20032;-80
2023/06/08 04:27:08;;;;;;;20.08;11.88;;;;;;;12.13;98.04;101761.63;4898161;29;20043;-80
2023/06/08 04:29:34;;;;;;;19.90;11.23;;;;;;;12.63;100.00;101780.38;4899111;29;20029;-81
2023/06/08 04:31:59;;;;;;;15.45;10.25;;;;;;;12.98;99.65;101780.16;4899231;29;20032;-79
2023/06/08 04:34:25;;;;;;;18.88;10.30;;;;;;;13.23;98.97;101781.31;4899408;29;20024;-78
2023/06/08 04:36:50;;;;;;;18.30;10.80;;;;;;;13.27;95.76;101757.69;4899260;29;20402;-78
2023/06/08 04:39:17;;;;;;;16.63;10.45;;;;;;;13.69;96.16;101774.22;4899334;29;20047;-78
2023/06/08 04:41:45;;;;;;;19.20;10.75;;;;;;;13.43;91.22;101757.63;4899314;29;20082;-79
2023/06/08 04:44:13;;;;;;;16.27;11.50;;;;;;;13.24;92.10;101728.53;4897870;29;20040;-78
2023/06/08 04:46:42;;;;;;;18.85;11.38;;;;;;;13.34;91.12;101771.97;4898801;29;20366;-80
2023/06/08 04:49:09;;;;;;;16.30;10.35;;;;;;;13.33;94.50;101759.94;4898936;29;20549;-81
2023/06/08 04:51:39;;;;;;;18.70;11.77;;;;;;;13.29;92.15;101775.78;4898884;29;20031;-80
2023/06/08 04:54:04;;;;;;;20.30;11.30;;;;;;;13.18;93.53;101747.84;4899021;29;20035;-79
2023/06/08 04:56:33;;;;;;;18.20;11.50;;;;;;;13.46;91.76;101773.81;4897464;29;20136;-80
2023/06/08 04:58:59;;;;;;;19.00;11.23;;;;;;;13.19;92.32;101705.47;4899007;29;20500;-80
2023/06/08 05:01:24;;;;;;;18.63;10.90;;;;;;;13.57;90.90;101729.09;4898854;29;20029;-80
2023/06/08 05:03:50;;;;;;;17.17;10.95;;;;;;;13.81;89.72;101757.06;4898560;29;20036;-80
2023/06/08 05:06:15;;;;;;;19.30;11.45;;;;;;;13.85;88.00;101769.75;4898648;29;20032;-77
2023/06/08 05:08:41;;;;;;;15.98;10.43;;;;;;;14.15;89.92;101776.56;4888392;29;20065;-80
2023/06/08 05:11:08;;;;;;;17.23;11.13;;;;;;;14.33;88.51;101772.78;4880219;29;20029;-80
2023/06/08 05:13:34;;;;;;;17.40;10.45;;;;;;;14.43;87.79;101773.03;4880121;29;20021;-79
2023/06/08 05:15:59;;;;;;;16.55;11.50;;;;;;;14.41;86.65;101772.31;4879769;29;20028;-78
2023/06/08 05:18:26;;;;;;;17.42;10.18;;;;;;;14.35;86.32;101747.53;4890840;29;20099;-76
2023/06/08 05:20:51;;;;;;;17.17;10.82;;;;;;;14.50;86.15;101774.34;4898920;29;20125;-77
2023/06/08 05:23:17;;;;;;;19.83;10.75;;;;;;;14.43;85.96;101771.28;4898456;29;20072;-78
2023/06/08 05:25:43;;;;;;;16.77;10.82;;;;;;;14.33;84.90;101771.03;4898376;29;20111;-78
2023/06/08 05:28:09;;;;;;;18.23;10.90;;;;;;;14.30;84.97;101752.22;4898187;29;20028;-77
2023/06/08 05:30:34;;;;;;;17.08;11.63;;;;;;;14.28;85.46;101767.06;4881436;29;20041;-76
2023/06/08 05:33:00;;;;;;;16.05;9.65;;;;;;;14.45;85.24;101759.03;4898067;29;20040;-76
2023/06/08 05:35:26;;;;;;;15.32;10.18;;;;;;;14.61;85.66;101758.91;4898252;29;20033;-78
2023/06/08 05:37:51;;;;;;;18.08;9.82;;;;;;;15.60;82.68;101767.00;4898146;29;20502;-78
2023/06/08 05:40:17;;;;;;;22.13;12.23;;;;;;;15.46;78.20;101757.53;4897279;29;20064;-79
2023/06/08 05:42:42;;;;;;;18.73;11.45;;;;;;;15.33;79.21;101759.28;4898004;29;20107;-78
2023/06/08 05:45:08;;;;;;;17.13;11.13;;;;;;;16.11;77.01;101749.50;4898032;29;20540;-78
2023/06/08 05:47:34;;;;;;;18.77;11.70;;;;;;;17.29;72.17;101719.91;4898001;29;20111;-78
2023/06/08 05:49:59;;;;;;;18.95;11.52;;;;;;;18.42;66.34;101747.53;4896544;29;20119;-77
2023/06/08 05:52:24;;;;;;;15.07;10.65;;;;;;;18.53;63.56;101731.78;4897826;29;20025;-79
2023/06/08 05:54:50;;;;;;;14.55;9.45;;;;;;;18.67;63.37;101734.13;4880917;29;20119;-78
2023/06/08 05:57:16;;;;;;;16.25;10.65;;;;;;;19.86;61.07;101755.41;4897864;29;20084;-80
2023/06/08 05:59:41;;;;;;;16.35;9.63;;;;;;;20.62;58.17;101745.13;4896310;29;20044;-80
2023/06/08 06:02:06;;;;;;;14.63;9.38;;;;;;;21.02;55.98;101758.06;4897920;29;20033;-78
2023/06/08 06:04:32;;;;;;;17.13;10.55;;;;;;;21.38;53.68;101753.81;4897879;29;20458;-80
2023/06/08 06:06:57;;;;;;;15.07;9.63;;;;;;;21.65;53.77;101749.56;4897962;29;20044;-83
2023/06/08 06:09:22;;;;;;;14.60;9.70;;;;;;;21.85;51.67;101722.19;4897862;29;20054;-80
2023/06/08 06:11:48;;;;;;;14.82;9.40;;;;;;;21.81;51.39;101733.13;4897661;29;20433;-80
2023/06/08 06:14:13;;;;;;;13.85;8.38;;;;;;;22.29;51.56;101749.44;4897843;29;20468;-81
2023/06/08 06:16:39;;;;;;;17.02;10.50;;;;;;;22.94;49.61;101749.16;4897749;29;20025;-81
2023/06/08 06:19:04;;;;;;;15.35;9.55;;;;;;;22.68;48.54;101725.41;4897600;29;20029;-82
2023/06/08 06:21:30;;;;;;;15.88;10.05;;;;;;;22.76;48.38;101754.44;4896209;29;20164;-81
2023/06/08 06:23:55;;;;;;;15.73;9.27;;;;;;;22.84;48.36;101756.34;4897382;29;20031;-82
2023/06/08 06:26:20;;;;;;;17.30;9.80;;;;;;;22.92;48.08;101743.22;4897651;29;20040;-82
2023/06/08 06:28:46;;;;;;;16.42;10.15;;;;;;;23.18;47.43;101741.41;4897544;29;20122;-79
2023/06/08 06:31:11;;;;;;;16.08;10.63;;;;;;;23.70;46.24;101757.16;4880994;29;20040;-80
2023/06/08 06:33:37;;;;;;;15.52;9.52;;;;;;;23.51;46.29;101753.91;4896371;29;20037;-79
2023/06/08 06:36:05;;;;;;;14.40;9.68;;;;;;;23.34;45.84;101756.47;4897584;29;20070;-78
2023/06/08 06:38:31;;;;;;;15.50;9.73;;;;;;;23.25;47.33;101756.59;4895965;29;20036;-80
2023/06/08 06:40:56;;;;;;;15.20;8.68;;;;;;;23.32;46.50;101721.53;4896119;29;20399;-78
2023/06/08 06:43:22;;;;;;;16.38;9.75;;;;;;;23.81;46.28;101744.66;4897488;29;20035;-78
2023/06/08 06:45:51;;;;;;;16.50;10.20;;;;;;;24.60;44.03;101733.53;4897417;29;20033;-79
2023/06/08 06:48:19;;;;;;;17.75;9.88;;;;;;;25.03;42.75;101752.66;4897455;29;20081;-79
2023/06/08 06:50:44;;;;;;;17.02;10.38;;;;;;;24.20;43.86;101750.19;4897621;29;20535;-80
2023/06/08 06:53:10;;;;;;;14.88;10.63;;;;;;;24.13;44.24;101714.88;4900830;29;20029;-79
2023/06/08 06:55:35;;;;;;;13.45;8.88;;;;;;;24.46;43.89;101750.03;4900648;29;20057;-80
2023/06/08 06:58:03;;;;;;;18.33;11.25;;;;;;;24.68;42.22;101754.69;4900992;29;20025;-80
2023/06/08 07:00:31;;;;;;;17.30;11.00;;;;;;;24.30;43.65;101737.66;4901182;29;20484;-80
2023/06/08 07:02:57;;;;;;;15.60;10.35;;;;;;;24.63;43.35;101764.06;4901280;29;20032;-79
2023/06/08 07:05:23;;;;;;;16.88;10.50;;;;;;;24.48;43.77;101740.97;4900971;29;20036;-80
2023/06/08 07:07:48;;;;;;;15.70;10.35;;;;;;;24.87;43.06;101741.09;4900741;29;20032;-79
2023/06/08 07:10:14;;;;;;;16.17;11.32;;;;;;;25.39;41.92;101760.97;4900829;29;20416;-80
2023/06/08 07:12:39;;;;;;;15.02;10.43;;;;;;;25.95;40.66;101756.41;4899533;29;20029;-79
2023/06/08 07:15:05;;;;;;;13.32;8.48;;;;;;;26.16;40.77;101750.50;4900795;29;20025;-80
2023/06/08 07:17:34;;;;;;;18.88;10.88;;;;;;;27.03;38.96;101765.00;4902016;29;20028;-77
2023/06/08 07:20:12;;;;;;;16.90;10.23;;;;;;;26.57;39.62;101622.06;4900476;29;20024;-79
2023/06/08 07:22:41;;;;;;;16.42;10.43;;;;;;;27.28;38.17;101662.13;4900401;29;20024;-78
2023/06/08 07:25:15;;;;;;;14.38;10.05;;;;;;;27.64;37.73;101626.81;4900400;29;20027;-80
2023/06/08 07:27:53;;;;;;;15.75;10.57;;;;;;;27.92;37.50;101621.56;4900436;29;20029;-79
2023/06/08 07:30:21;;;;;;;19.30;10.93;;;;;;;27.94;36.26;101710.66;4900348;29;20160;-79
2023/06/08 07:32:46;;;;;;;18.40;11.48;;;;;;;27.33;36.22;101667.69;4900361;29;20032;-79
2023/06/08 07:35:12;;;;;;;18.35;11.13;;;;;;;27.18;38.36;101740.34;4900182;29;20028;-79
2023/06/08 07:37:37;;;;;;;17.25;10.90;;;;;;;26.71;38.09;101688.47;4900088;29;20129;-79
2023/06/08 07:40:09;;;;;;;15.52;10.60;;;;;;;26.11;40.92;101750.22;4899993;29;20072;-78
2023/06/08 07:42:35;;;;;;;15.60;11.43;;;;;;;25.00;42.79;101766.19;4900190;29;20038;-80
2023/06/08 07:45:00;;;;;;;15.70;10.73;;;;;;;23.51;45.16;101725.75;4900271;29;20033;-79
2023/06/08 07:47:26;;;;;;;19.08;11.98;;;;;;;22.77;46.81;101750.00;4898994;29;20035;-80
2023/06/08 07:49:52;;;;;;;19.08;12.13;;;;;;;21.99;50.41;101755.03;4900024;29;20392;-80
2023/06/08 07:52:18;;;;;;;15.95;11.75;;;;;;;20.87;52.23;101699.91;4900278;29;20029;-79
2023/06/08 07:54:43;;;;;;;18.63;11.57;;;;;;;20.74;54.36;101754.50;4899823;29;20057;-80
2023/06/08 07:57:08;;;;;;;17.60;12.02;;;;;;;20.17;56.41;101732.56;4899949;29;20068;-79
2023/06/08 07:59:34;;;;;;;18.85;12.13;;;;;;;19.99;56.97;101755.16;4899787;29;20481;-79
2023/06/08 08:02:02;;;;;;;16.70;11.85;;;;;;;19.56;58.68;101722.19;4900015;29;20032;-80
2023/06/08 08:04:27;;;;;;;17.70;13.15;;;;;;;19.49;60.20;101750.72;4897722;29;20477;-78
2023/06/08 08:06:52;;;;;;;21.25;12.77;;;;;;;19.25;61.07;101712.69;4899981;29;20088;-84
2023/06/08 08:09:29;;;;;;;18.23;12.80;;;;;;;19.11;61.00;101692.91;4898074;29;20040;-81
2023/06/08 08:12:22;;;;;;;16.33;12.40;;;;;;;19.59;60.06;101748.16;4899821;29;20032;-83
2023/06/08 08:14:47;;;;;;;18.08;13.15;;;;;;;18.53;60.94;101577.47;4899751;29;20033;-85
2023/06/08 08:17:22;;;;;;;19.17;12.68;;;;;;;19.26;60.69;101699.44;4898182;29;20029;-82
2023/06/08 08:20:07;;;;;;;19.25;13.35;;;;;;;19.87;61.35;101756.25;4898696;29;20115;-82
2023/06/08 08:22:39;;;;;;;17.35;12.98;;;;;;;18.95;60.93;101583.44;4899037;29;20033;-82
2023/06/08 08:25:07;;;;;;;20.17;13.50;;;;;;;19.24;61.54;101637.69;4898519;29;20403;-83
2023/06/08 08:27:51;;;;;;;17.50;11.90;;;;;;;20.10;61.88;101755.03;4899067;29;20029;-81
2023/06/08 08:30:19;;;;;;;17.08;12.68;;;;;;;19.64;61.68;101677.81;4899452;29;20084;-83
2023/06/08 08:35:31;;;;;;;16.90;11.52;;;;;;;19.52;61.39;101689.34;4876483;23;20057;-83
2023/06/08 08:37:56;;;;;;;16.13;11.90;;;;;;;20.15;63.04;101746.75;4880727;29;20025;-87
2023/06/08 08:40:23;;;;;;;19.27;13.50;;;;;;;20.19;60.00;101745.53;4880393;29;20089;-89
2023/06/08 08:43:00;;;;;;;18.13;12.82;;;;;;;19.98;60.97;101696.66;4880481;29;20040;-78
2023/06/08 08:45:34;;;;;;;15.63;12.10;;;;;;;19.68;62.03;101605.03;4886750;23;20046;-80
2023/06/08 08:48:31;;;;;;;18.48;11.48;;;;;;;20.71;60.86;101739.03;4855873;29;20082;-82
2023/06/08 08:50:58;;;;;;;16.38;11.07;;;;;;;20.47;59.98;101731.63;4829273;29;20084;-82
2023/06/08 08:55:59;;;;;;;16.58;10.60;;;;;;;20.23;61.02;101729.38;4875743;24;20079;-81
2023/06/08 08:58:25;;;;;;;16.45;10.77;;;;;;;20.29;61.54;101733.25;4861478;29;20029;-80
2023/06/08 09:00:52;;;;;;;16.30;11.00;;;;;;;20.33;62.21;101700.50;4861466;29;20112;-82
2023/06/08 09:03:50;;;;;;;17.15;11.27;;;;;;;20.69;61.92;101734.91;4861534;29;20033;-83
2023/06/08 09:06:25;;;;;;;18.33;12.20;;;;;;;19.90;59.80;101610.00;4861443;29;20036;-79
2023/06/08 09:09:05;;;;;;;15.15;10.30;;;;;;;19.76;61.07;101563.22;4861492;29;20033;-80
2023/06/08 09:12:19;;;;;;;13.85;10.48;;;;;;;20.71;59.73;101696.22;4859928;29;20038;-81
2023/06/08 09:15:05;;;;;;;17.17;10.50;;;;;;;20.72;59.31;101717.06;4861274;29;20089;-80
2023/06/08 09:17:37;;;;;;;15.30;10.32;;;;;;;20.74;60.18;101730.06;4861131;29;20057;-80
2023/06/08 09:20:02;;;;;;;14.88;10.32;;;;;;;20.59;60.88;101692.94;4861279;29;20038;-80
2023/06/08 09:22:29;;;;;;;14.00;10.40;;;;;;;20.55;59.34;101658.28;4861049;29;20022;-80
2023/06/08 09:24:55;;;;;;;16.30;9.73;;;;;;;21.16;58.53;101725.28;4861087;29;20051;-80
2023/06/08 09:27:25;;;;;;;11.93;9.27;;;;;;;21.17;58.37;101719.88;4860880;29;20065;-81
2023/06/08 09:29:52;;;;;;;15.30;8.98;;;;;;;21.08;58.08;101709.41;4861218;29;20033;-80
2023/06/08 09:32:25;;;;;;;15.13;10.13;;;;;;;21.16;58.37;101717.38;4861124;29;20385;-81
2023/06/08 09:34:56;;;;;;;14.90;10.45;;;;;;;21.17;57.90;101693.59;4859668;29;20033;-81
2023/06/08 09:37:31;;;;;;;16.83;10.45;;;;;;;21.53;58.41;101682.38;4861014;29;20032;-81
2023/06/08 09:39:59;;;;;;;15.85;9.98;;;;;;;21.91;57.29;101690.03;4860996;29;20457;-82
2023/06/08 09:42:41;;;;;;;15.60;10.63;;;;;;;22.18;56.72;101685.69;4860894;29;20026;-81
2023/06/08 09:45:10;;;;;;;15.10;9.27;;;;;;;22.68;54.49;101714.06;4860933;29;20032;-78
2023/06/08 09:47:35;;;;;;;14.57;8.68;;;;;;;22.84;54.17;101706.31;4860797;29;20030;-79
2023/06/08 09:50:02;;;;;;;12.25;9.20;;;;;;;22.75;54.29;101675.59;4860974;29;20485;-81
2023/06/08 09:52:33;;;;;;;12.48;9.30;;;;;;;23.28;52.48;101719.38;4860855;29;20449;-81
2023/06/08 09:54:59;;;;;;;15.23;8.90;;;;;;;23.37;53.65;101695.53;4860666;29;20454;-79
2023/06/08 09:57:28;;;;;;;14.52;9.13;;;;;;;23.49;52.33;101706.59;4860722;29;20029;-81
2023/06/08 10:00:17;;;;;;;14.20;8.70;;;;;;;23.47;50.53;101717.31;4860418;29;20028;-80
2023/06/08 10:03:06;;;;;;;15.02;8.88;;;;;;;23.14;51.52;101691.81;4859435;29;20039;-81
2023/06/08 10:05:35;;;;;;;16.98;8.77;;;;;;;23.18;50.17;101708.94;4860547;29;20037;-81
2023/06/08 10:08:02;;;;;;;12.43;8.00;;;;;;;23.12;50.92;101675.34;4860610;29;20466;-81
2023/06/08 10:10:36;;;;;;;13.23;9.02;;;;;;;23.35;51.77;101704.59;4860436;29;20030;-81
2023/06/08 10:13:02;;;;;;;12.63;8.38;;;;;;;22.98;49.97;101676.75;4860449;29;20431;-82
2023/06/08 10:15:28;;;;;;;13.38;7.35;;;;;;;23.14;51.18;101697.91;4860179;29;20026;-81
2023/06/08 10:17:55;;;;;;;12.30;7.57;;;;;;;23.01;51.13;101697.53;4860666;29;20040;-81
2023/06/08 10:20:20;;;;;;;11.05;7.43;;;;;;;22.98;50.53;101694.34;4860450;29;20120;-80
2023/06/08 10:22:46;;;;;;;11.27;6.38;;;;;;;22.83;52.42;101702.00;4860372;29;20113;-74
2023/06/08 10:25:13;;;;;;;18.88;8.68;;;;;;;22.88;50.12;101694.47;4860324;29;20021;-81
2023/06/08 10:27:46;;;;;;;12.13;8.02;;;;;;;22.74;49.22;101668.69;4866248;29;20037;-81
2023/06/08 10:30:26;;;;;;;12.43;8.48;;;;;;;22.73;50.68;101698.63;4866682;29;20025;-80
2023/06/08 10:32:52;;;;;;;12.48;7.22;;;;;;;22.68;50.44;101691.19;4871750;29;20089;-79
2023/06/08 10:35:17;;;;;;;12.68;8.13;;;;;;;22.57;50.43;101673.00;4885820;29;20028;-81
2023/06/08 10:37:44;;;;;;;12.02;8.98;;;;;;;22.72;50.87;101686.44;4883865;29;20041;-80
2023/06/08 10:40:11;;;;;;;11.50;8.05;;;;;;;22.92;50.36;101689.72;4883713;29;20029;-81
2023/06/08 10:42:38;;;;;;;13.10;7.97;;;;;;;23.10;51.48;101686.00;4884783;29;20033;-80
2023/06/08 10:45:04;;;;;;;14.07;8.40;;;;;;;23.09;51.18;101680.91;4885001;29;20032;-82
2023/06/08 10:47:32;;;;;;;13.77;9.27;;;;;;;23.02;49.97;101656.19;4885005;29;20025;-81
2023/06/08 10:50:01;;;;;;;14.45;10.00;;;;;;;23.12;50.70;101663.00;4884893;29;20389;-81
2023/06/08 10:52:27;;;;;;;15.38;9.85;;;;;;;22.95;50.55;101669.16;4884711;29;20029;-82
2023/06/08 10:54:57;;;;;;;17.08;9.88;;;;;;;22.89;51.23;101678.50;4884835;29;20049;-80
2023/06/08 10:57:49;;;;;;;13.18;9.95;;;;;;;22.66;50.43;101645.75;4883696;29;20037;-82
2023/06/08 11:00:20;;;;;;;14.68;9.65;;;;;;;22.80;51.40;101674.13;4884833;29;20033;-81
2023/06/08 11:03:06;;;;;;;;;;;;;;;22.89;51.60;101667.13;4884144;29;20044;-83
2023/06/08 11:05:33;;;;;;;16.63;11.05;;;;;;;22.77;50.77;101665.72;4883180;29;19970;-81
2023/06/08 11:08:02;;;;;;;13.82;10.85;;;;;;;22.62;51.64;101641.78;4884867;29;20025;-84
2023/06/08 11:10:30;;;;;;;16.23;9.27;;;;;;;22.78;50.97;101646.31;4884856;29;20093;-82
2023/06/08 11:13:04;;;;;;;20.63;10.02;;;;;;;22.84;51.07;101659.72;4883603;29;20048;-82
2023/06/08 11:15:31;;;;;;;17.75;9.70;;;;;;;22.75;51.06;101633.47;4884796;29;20017;-82
2023/06/08 11:17:56;;;;;;;12.23;9.38;;;;;;;22.60;51.88;101612.97;4884819;29;20591;-82
2023/06/08 11:20:28;;;;;;;13.48;7.30;;;;;;;22.77;50.63;101632.31;4884681;29;20142;-88
2023/06/08 11:22:57;;;;;;;11.10;6.70;;;;;;;22.86;50.00;101654.28;4884873;29;20041;-81
2023/06/08 11:25:24;;;;;;;8.82;7.18;;;;;;;22.79;50.04;101653.22;4884860;29;20025;-82